Time;durP1;ratioP1;P1;durP2;ratioP2;P2;SDS_P1;SDS_P2;PMS_P1;PMS_P2;Temp;Humidity;BMP_temperature;BMP_pressure;BME280_temperature;BME280_humidity;BME280_pressure;Samples;Min_cycle;Max_cycle;Signal;HPM_P1;HPM_P2
2023/05/20 00:01:58;;;;;;;4.72;3.22;;;;;;;;;;4996300;28;20022;-76
2023/05/20 00:04:23;;;;;;;5.95;3.10;;;;;;;;;;4994458;28;20033;-77
2023/05/20 00:06:48;;;;;;;4.65;3.63;;;;;;;;;;4988477;28;20026;-77
2023/05/20 00:09:15;;;;;;;7.28;5.43;;;;;;;;;;4998716;28;20026;-75
2023/05/20 00:11:41;;;;;;;6.88;3.70;;;;;;;;;;4985455;28;20061;-76
2023/05/20 00:14:06;;;;;;;2.58;2.13;;;;;;;;;;4995216;28;20030;-78
2023/05/20 00:16:31;;;;;;;2.67;2.10;;;;;;;;;;4977872;28;20030;-77
2023/05/20 00:18:57;;;;;;;3.00;2.20;;;;;;;;;;4983325;28;20030;-77
2023/05/20 00:21:22;;;;;;;2.63;2.10;;;;;;;;;;4981743;28;20033;-77
2023/05/20 00:23:48;;;;;;;3.65;2.33;;;;;;;;;;4983233;28;20030;-77
2023/05/20 00:26:13;;;;;;;6.80;3.90;;;;;;;;;;4982108;28;20108;-77
2023/05/20 00:28:38;;;;;;;4.22;2.63;;;;;;;;;;4981118;28;20025;-77
2023/05/20 00:31:04;;;;;;;6.32;3.92;;;;;;;;;;4982790;28;20059;-77
2023/05/20 00:33:29;;;;;;;5.97;3.70;;;;;;;;;;4960228;28;20057;-77
2023/05/20 00:35:55;;;;;;;4.20;3.40;;;;;;;;;;4991448;28;20054;-77
2023/05/20 00:38:20;;;;;;;4.53;3.63;;;;;;;;;;4968635;28;20109;-77
2023/05/20 00:40:46;;;;;;;6.95;4.22;;;;;;;;;;4979925;28;20034;-77
2023/05/20 00:43:11;;;;;;;3.22;2.25;;;;;;;;;;4979945;28;20018;-77
2023/05/20 00:45:37;;;;;;;5.15;4.22;;;;;;;;;;4966933;28;20054;-77
2023/05/20 00:48:03;;;;;;;5.70;4.00;;;;;;;;;;4992697;28;20459;-77
2023/05/20 00:50:30;;;;;;;4.82;3.50;;;;;;;;;;4967551;28;20117;-77
2023/05/20 00:52:55;;;;;;;5.63;3.72;;;;;;;;;;4960340;28;20034;-78
2023/05/20 00:55:21;;;;;;;2.05;1.75;;;;;;;;;;4979932;28;20543;-78
2023/05/20 00:57:48;;;;;;;4.22;3.83;;;;;;;;;;4992320;28;20085;-77
2023/05/20 01:00:13;;;;;;;3.78;3.25;;;;;;;;;;4961706;28;20105;-77
2023/05/20 01:02:39;;;;;;;3.58;3.28;;;;;;;;;;4977837;28;20078;-77
2023/05/20 01:05:05;;;;;;;3.15;1.92;;;;;;;;;;4968486;28;20026;-78
2023/05/20 01:07:31;;;;;;;4.72;3.75;;;;;;;;;;4987130;28;20344;-77
2023/05/20 01:09:57;;;;;;;4.03;3.15;;;;;;;;;;4990176;28;20018;-77
2023/05/20 01:12:29;;;;;;;5.30;4.18;;;;;;;;;;4981864;28;20105;-77
2023/05/20 01:15:09;;;;;;;5.53;4.25;;;;;;;;;;4977905;28;20030;-77
2023/05/20 01:17:43;;;;;;;6.55;3.60;;;;;;;;;;4986804;28;20045;-77
2023/05/20 01:20:10;;;;;;;7.13;3.63;;;;;;;;;;4983747;28;20502;-77
2023/05/20 01:22:52;;;;;;;4.57;3.83;;;;;;;;;;4954750;28;20080;-77
2023/05/20 01:25:17;;;;;;;5.35;4.32;;;;;;;;;;4959759;28;20085;-77
2023/05/20 01:27:43;;;;;;;2.80;2.40;;;;;;;;;;4977113;28;20034;-77
2023/05/20 01:30:10;;;;;;;4.65;4.15;;;;;;;;;;4992734;28;20030;-77
2023/05/20 01:32:46;;;;;;;6.47;4.93;;;;;;;;;;4972693;28;20022;-77
2023/05/20 01:35:13;;;;;;;6.28;5.15;;;;;;;;;;4977043;28;20038;-78
2023/05/20 01:37:40;;;;;;;4.57;3.20;;;;;;;;;;4989407;28;20022;-77
2023/05/20 01:40:11;;;;;;;6.65;5.20;;;;;;;;;;4969762;28;20547;-77
2023/05/20 01:42:37;;;;;;;8.43;4.88;;;;;;;;;;4988736;28;20414;-77
2023/05/20 01:45:03;;;;;;;5.97;4.50;;;;;;;;;;4967126;28;20053;-77
2023/05/20 01:47:30;;;;;;;7.78;5.63;;;;;;;;;;4981465;28;20033;-77
2023/05/20 01:49:55;;;;;;;6.57;4.40;;;;;;;;;;4977358;28;20455;-77
2023/05/20 01:52:21;;;;;;;7.55;5.30;;;;;;;;;;4982350;28;20057;-78
2023/05/20 01:54:49;;;;;;;2.85;2.42;;;;;;;;;;4982065;28;20033;-77
2023/05/20 01:57:22;;;;;;;6.07;3.95;;;;;;;;;;4977714;28;20541;-77
2023/05/20 01:59:48;;;;;;;6.75;4.10;;;;;;;;;;4979638;28;20109;-78
2023/05/20 02:02:14;;;;;;;5.85;4.80;;;;;;;;;;4985920;28;20541;-77
2023/05/20 02:04:41;;;;;;;7.75;5.38;;;;;;;;;;4984471;28;20037;-77
2023/05/20 02:07:06;;;;;;;6.65;5.13;;;;;;;;;;4976048;28;20026;-77
2023/05/20 02:09:31;;;;;;;6.35;5.18;;;;;;;;;;4976526;28;20033;-79
2023/05/20 02:11:57;;;;;;;6.53;5.35;;;;;;;;;;4958864;28;20034;-79
2023/05/20 02:14:22;;;;;;;7.68;5.40;;;;;;;;;;4992445;28;20521;-79
2023/05/20 02:16:47;;;;;;;6.07;4.68;;;;;;;;;;4989209;28;20030;-77
2023/05/20 02:19:18;;;;;;;7.55;5.70;;;;;;;;;;4976538;28;20097;-77
2023/05/20 02:21:45;;;;;;;6.57;5.38;;;;;;;;;;4980283;28;20042;-78
2023/05/20 02:24:11;;;;;;;6.45;5.35;;;;;;;;;;4966891;28;20041;-78
2023/05/20 02:26:36;;;;;;;5.25;4.65;;;;;;;;;;4989422;28;20022;-77
2023/05/20 02:29:02;;;;;;;6.60;5.40;;;;;;;;;;4978225;28;20093;-77
2023/05/20 02:31:27;;;;;;;5.88;4.85;;;;;;;;;;4982306;28;20030;-80
2023/05/20 02:33:52;;;;;;;10.70;6.00;;;;;;;;;;4982945;28;20033;-79
2023/05/20 02:36:18;;;;;;;7.30;5.18;;;;;;;;;;4986210;28;20155;-78
2023/05/20 02:38:43;;;;;;;7.15;5.57;;;;;;;;;;4989741;28;20029;-77
2023/05/20 02:41:09;;;;;;;3.28;2.95;;;;;;;;;;4979235;28;20112;-77
2023/05/20 02:43:35;;;;;;;8.32;5.75;;;;;;;;;;4976966;28;20050;-77
2023/05/20 02:46:04;;;;;;;6.20;4.80;;;;;;;;;;4985829;28;20037;-77
2023/05/20 02:48:29;;;;;;;6.60;5.88;;;;;;;;;;4967435;28;20115;-77
2023/05/20 02:50:55;;;;;;;6.25;5.13;;;;;;;;;;4981908;28;20110;-78
2023/05/20 02:53:21;;;;;;;6.80;5.07;;;;;;;;;;4980759;28;20023;-77
2023/05/20 02:55:46;;;;;;;8.88;6.03;;;;;;;;;;4978639;28;20047;-78
2023/05/20 02:58:12;;;;;;;8.18;5.85;;;;;;;;;;4978840;28;20045;-78
2023/05/20 03:00:39;;;;;;;7.22;5.47;;;;;;;;;;4983905;28;20133;-78
2023/05/20 03:03:12;;;;;;;7.55;5.57;;;;;;;;;;4977078;28;20717;-78
2023/05/20 03:05:37;;;;;;;8.07;5.53;;;;;;;;;;4966939;28;20027;-77
2023/05/20 03:08:08;;;;;;;7.57;5.43;;;;;;;;;;4978846;28;20022;-77
2023/05/20 03:10:37;;;;;;;4.95;3.85;;;;;;;;;;4983970;28;20046;-77
2023/05/20 03:13:09;;;;;;;8.50;5.95;;;;;;;;;;4978399;28;20022;-80
2023/05/20 03:15:35;;;;;;;7.47;5.35;;;;;;;;;;4988306;28;20076;-77
2023/05/20 03:18:01;;;;;;;7.65;6.05;;;;;;;;;;4988382;28;20475;-77
2023/05/20 03:20:28;;;;;;;7.22;6.10;;;;;;;;;;4990512;28;20022;-79
2023/05/20 03:22:56;;;;;;;5.85;4.47;;;;;;;;;;4992096;28;20042;-78
2023/05/20 03:25:21;;;;;;;8.52;5.63;;;;;;;;;;4982098;28;20038;-77
2023/05/20 03:27:47;;;;;;;6.97;5.35;;;;;;;;;;4983248;28;20030;-79
2023/05/20 03:30:13;;;;;;;8.93;5.85;;;;;;;;;;4991181;28;20413;-77
2023/05/20 03:32:38;;;;;;;6.55;4.80;;;;;;;;;;4990857;28;20061;-77
2023/05/20 03:35:05;;;;;;;8.05;5.45;;;;;;;;;;4982093;28;20037;-77
2023/05/20 03:37:30;;;;;;;5.85;4.75;;;;;;;;;;4982096;28;20030;-78
2023/05/20 03:39:55;;;;;;;8.90;6.30;;;;;;;;;;4983234;28;20041;-77
2023/05/20 03:42:21;;;;;;;7.78;5.47;;;;;;;;;;4991816;28;20033;-77
2023/05/20 03:44:46;;;;;;;7.47;5.38;;;;;;;;;;4976219;28;20483;-77
2023/05/20 03:47:11;;;;;;;7.75;5.45;;;;;;;;;;4982070;28;20105;-77
2023/05/20 03:49:38;;;;;;;7.75;6.28;;;;;;;;;;4979365;28;20027;-77
2023/05/20 03:52:03;;;;;;;8.25;5.75;;;;;;;;;;4964684;28;20030;-78
2023/05/20 03:54:30;;;;;;;6.80;4.88;;;;;;;;;;4976520;28;20022;-78
2023/05/20 03:56:55;;;;;;;8.07;6.03;;;;;;;;;;4984145;28;20022;-77
2023/05/20 03:59:21;;;;;;;9.30;6.28;;;;;;;;;;4974349;28;20521;-77
2023/05/20 04:01:47;;;;;;;7.30;5.65;;;;;;;;;;4982035;28;20065;-77
2023/05/20 04:04:12;;;;;;;5.50;4.10;;;;;;;;;;4989809;28;20368;-78
2023/05/20 04:06:39;;;;;;;7.15;5.50;;;;;;;;;;4990161;28;20019;-77
2023/05/20 04:09:04;;;;;;;7.03;5.13;;;;;;;;;;4988049;28;20628;-77
2023/05/20 04:11:30;;;;;;;8.90;6.32;;;;;;;;;;4983352;28;20053;-77
2023/05/20 04:13:57;;;;;;;8.30;6.00;;;;;;;;;;4980734;28;20124;-77
2023/05/20 04:16:22;;;;;;;7.88;5.45;;;;;;;;;;4998703;28;20463;-77
2023/05/20 04:18:48;;;;;;;7.35;6.18;;;;;;;;;;4965620;28;20026;-77
2023/05/20 04:21:13;;;;;;;8.50;6.20;;;;;;;;;;4983448;28;20443;-77
2023/05/20 04:23:39;;;;;;;12.13;6.75;;;;;;;;;;4981946;28;20026;-77
2023/05/20 04:26:04;;;;;;;8.35;6.43;;;;;;;;;;4963991;28;20816;-78
2023/05/20 04:28:32;;;;;;;8.25;6.60;;;;;;;;;;4987375;28;20040;-78
2023/05/20 04:30:59;;;;;;;8.60;6.78;;;;;;;;;;4986727;28;20034;-77
2023/05/20 04:33:26;;;;;;;8.98;7.63;;;;;;;;;;4974741;28;20023;-77
2023/05/20 04:35:51;;;;;;;9.98;7.00;;;;;;;;;;4989375;28;20471;-78
2023/05/20 04:38:17;;;;;;;10.43;7.63;;;;;;;;;;4993715;28;20029;-77
2023/05/20 04:40:42;;;;;;;7.80;6.38;;;;;;;;;;4976633;28;20038;-77
2023/05/20 04:43:08;;;;;;;5.30;4.32;;;;;;;;;;4979388;28;20027;-77
2023/05/20 04:45:34;;;;;;;9.32;6.32;;;;;;;;;;4986372;28;20022;-77
2023/05/20 04:48:00;;;;;;;10.73;7.30;;;;;;;;;;4993170;28;20022;-79
2023/05/20 04:50:25;;;;;;;9.90;6.25;;;;;;;;;;4992409;28;20084;-79
2023/05/20 04:52:51;;;;;;;9.73;7.43;;;;;;;;;;4979801;28;20049;-77
2023/05/20 04:55:17;;;;;;;8.15;6.15;;;;;;;;;;4981905;28;20038;-77
2023/05/20 04:57:42;;;;;;;9.70;6.75;;;;;;;;;;4979595;28;20677;-77
2023/05/20 05:00:09;;;;;;;7.97;6.43;;;;;;;;;;4999709;28;20025;-77
2023/05/20 05:02:35;;;;;;;11.18;6.07;;;;;;;;;;4974613;28;20025;-77
2023/05/20 05:05:00;;;;;;;8.32;6.70;;;;;;;;;;4964055;28;20023;-77
2023/05/20 05:07:26;;;;;;;9.38;6.55;;;;;;;;;;4985445;28;20073;-77
2023/05/20 05:09:51;;;;;;;8.90;6.88;;;;;;;;;;4974198;28;20589;-77
2023/05/20 05:12:17;;;;;;;10.20;7.03;;;;;;;;;;4986434;28;20499;-77
2023/05/20 05:14:42;;;;;;;8.57;6.63;;;;;;;;;;4978805;28;20030;-78
2023/05/20 05:17:07;;;;;;;10.32;6.78;;;;;;;;;;4959068;28;20033;-77
2023/05/20 05:19:33;;;;;;;9.18;6.18;;;;;;;;;;4985082;28;20062;-77
2023/05/20 05:21:58;;;;;;;9.93;6.97;;;;;;;;;;4995106;28;20033;-77
2023/05/20 05:24:23;;;;;;;9.18;6.90;;;;;;;;;;4977431;28;20018;-77
2023/05/20 05:26:53;;;;;;;10.40;7.32;;;;;;;;;;4982550;28;20494;-77
2023/05/20 05:29:18;;;;;;;18.38;7.57;;;;;;;;;;4974376;28;20022;-77
2023/05/20 05:31:43;;;;;;;12.35;7.45;;;;;;;;;;4988118;28;20038;-78
2023/05/20 05:34:09;;;;;;;10.18;6.70;;;;;;;;;;4988665;28;20019;-77
2023/05/20 05:36:34;;;;;;;11.02;7.55;;;;;;;;;;4977625;28;20441;-78
2023/05/20 05:39:00;;;;;;;12.88;7.63;;;;;;;;;;4976887;28;20050;-78
2023/05/20 05:41:25;;;;;;;11.20;7.53;;;;;;;;;;4979641;28;20027;-77
2023/05/20 05:43:51;;;;;;;10.10;7.50;;;;;;;;;;4992226;28;20666;-78
2023/05/20 05:46:16;;;;;;;9.73;7.40;;;;;;;;;;4964079;28;20031;-78
2023/05/20 05:48:44;;;;;;;13.25;7.47;;;;;;;;;;4979428;28;20042;-77
2023/05/20 05:51:09;;;;;;;12.77;9.00;;;;;;;;;;4979365;28;20027;-78
2023/05/20 05:53:34;;;;;;;10.65;7.32;;;;;;;;;;4977918;28;20025;-77
2023/05/20 05:56:00;;;;;;;12.07;8.75;;;;;;;;;;4990708;28;20109;-77
2023/05/20 05:58:25;;;;;;;10.82;7.47;;;;;;;;;;4975287;28;20030;-77
2023/05/20 06:00:51;;;;;;;12.18;8.57;;;;;;;;;;4983280;28;20099;-77
2023/05/20 06:03:17;;;;;;;10.02;7.63;;;;;;;;;;4982428;28;20538;-77
2023/05/20 06:05:48;;;;;;;13.70;8.10;;;;;;;;;;4993588;28;20038;-79
2023/05/20 06:08:13;;;;;;;9.85;7.30;;;;;;;;;;4981335;28;20639;-79
2023/05/20 06:10:39;;;;;;;11.82;7.45;;;;;;;;;;4973336;28;20027;-79
2023/05/20 06:13:04;;;;;;;12.18;8.13;;;;;;;;;;4979926;28;20030;-77
2023/05/20 06:15:30;;;;;;;11.07;7.75;;;;;;;;;;4982719;28;20037;-77
2023/05/20 06:17:55;;;;;;;10.10;8.27;;;;;;;;;;4990331;28;20487;-77
2023/05/20 06:20:20;;;;;;;11.82;8.50;;;;;;;;;;4978544;28;20026;-77
2023/05/20 06:22:46;;;;;;;11.77;7.90;;;;;;;;;;4974704;28;20638;-77
2023/05/20 06:25:11;;;;;;;13.07;8.30;;;;;;;;;;4971101;28;20026;-78
2023/05/20 06:27:37;;;;;;;11.98;8.73;;;;;;;;;;4985665;28;20045;-78
2023/05/20 06:30:03;;;;;;;10.32;7.65;;;;;;;;;;4987393;28;20026;-77
2023/05/20 06:32:28;;;;;;;10.95;8.40;;;;;;;;;;4973264;28;20400;-77
2023/05/20 06:34:53;;;;;;;13.48;8.13;;;;;;;;;;4973604;28;20034;-77
2023/05/20 06:37:19;;;;;;;10.77;8.27;;;;;;;;;;4982312;28;20035;-77
2023/05/20 06:39:46;;;;;;;12.57;8.45;;;;;;;;;;4987507;28;20022;-77
2023/05/20 06:42:11;;;;;;;13.43;8.40;;;;;;;;;;4976410;28;20019;-79
2023/05/20 06:44:37;;;;;;;11.88;8.45;;;;;;;;;;4977438;28;20570;-79
2023/05/20 06:47:02;;;;;;;10.57;8.30;;;;;;;;;;4984963;28;20049;-77
2023/05/20 06:49:28;;;;;;;10.35;8.05;;;;;;;;;;4973993;28;20026;-78
2023/05/20 06:51:53;;;;;;;10.48;8.05;;;;;;;;;;4992423;28;20737;-77
2023/05/20 06:54:18;;;;;;;8.85;6.85;;;;;;;;;;4982732;28;20105;-78
2023/05/20 06:56:44;;;;;;;11.75;8.25;;;;;;;;;;4985511;28;20057;-77
2023/05/20 06:59:09;;;;;;;12.20;7.88;;;;;;;;;;4989302;28;20022;-78
2023/05/20 07:01:35;;;;;;;11.55;7.93;;;;;;;;;;4987388;28;20093;-79
2023/05/20 07:04:00;;;;;;;12.00;8.00;;;;;;;;;;4982805;28;20034;-79
2023/05/20 07:06:26;;;;;;;8.10;6.40;;;;;;;;;;4985201;28;20053;-80
2023/05/20 07:08:51;;;;;;;9.45;7.90;;;;;;;;;;4983128;28;20391;-79
2023/05/20 07:11:16;;;;;;;10.75;7.93;;;;;;;;;;4992977;28;20410;-77
2023/05/20 07:13:42;;;;;;;11.27;7.82;;;;;;;;;;4983084;28;20065;-77
2023/05/20 07:16:07;;;;;;;10.00;7.53;;;;;;;;;;4986810;28;20019;-79
2023/05/20 07:18:32;;;;;;;13.75;8.80;;;;;;;;;;4990952;28;20481;-77
2023/05/20 07:20:58;;;;;;;11.50;8.27;;;;;;;;;;4988559;28;20480;-77
2023/05/20 07:23:23;;;;;;;10.60;7.88;;;;;;;;;;4991129;28;20180;-77
2023/05/20 07:25:49;;;;;;;12.73;9.20;;;;;;;;;;4980084;28;20034;-77
2023/05/20 07:28:16;;;;;;;11.68;8.20;;;;;;;;;;4966383;28;20045;-77
2023/05/20 07:30:41;;;;;;;11.18;7.80;;;;;;;;;;4981265;28;20154;-77
2023/05/20 07:33:06;;;;;;;14.05;9.68;;;;;;;;;;4997194;28;20105;-77
2023/05/20 07:35:32;;;;;;;11.85;8.57;;;;;;;;;;4981543;28;20022;-77
2023/05/20 07:37:57;;;;;;;12.32;8.32;;;;;;;;;;4981723;28;20109;-77
2023/05/20 07:40:23;;;;;;;11.35;8.93;;;;;;;;;;4987307;28;20106;-78
2023/05/20 07:42:48;;;;;;;12.82;8.98;;;;;;;;;;4975007;28;20030;-77
2023/05/20 07:45:13;;;;;;;13.38;9.57;;;;;;;;;;4994162;28;20027;-78
2023/05/20 07:47:39;;;;;;;11.52;8.60;;;;;;;;;;4983875;28;20437;-77
2023/05/20 07:50:05;;;;;;;13.60;9.20;;;;;;;;;;4984692;28;20697;-77
2023/05/20 07:52:30;;;;;;;13.82;8.70;;;;;;;;;;4978399;28;20547;-77
2023/05/20 07:54:56;;;;;;;11.40;7.60;;;;;;;;;;4981805;28;20535;-77
2023/05/20 07:57:21;;;;;;;10.65;8.32;;;;;;;;;;4985367;28;20054;-77
2023/05/20 07:59:47;;;;;;;14.02;8.68;;;;;;;;;;4975371;28;20054;-77
2023/05/20 08:02:12;;;;;;;14.50;8.82;;;;;;;;;;4980583;28;20518;-78
2023/05/20 08:04:37;;;;;;;11.95;9.07;;;;;;;;;;4963064;28;20105;-77
2023/05/20 08:07:03;;;;;;;12.45;8.88;;;;;;;;;;4998048;28;20038;-77
2023/05/20 08:09:30;;;;;;;13.20;9.27;;;;;;;;;;4980599;28;20026;-77
2023/05/20 08:11:55;;;;;;;12.48;7.97;;;;;;;;;;4977902;28;20031;-77
2023/05/20 08:14:21;;;;;;;12.27;9.15;;;;;;;;;;4987136;28;20363;-77
2023/05/20 08:16:46;;;;;;;15.07;10.27;;;;;;;;;;4989635;28;20033;-78
2023/05/20 08:19:12;;;;;;;14.25;10.10;;;;;;;;;;4993760;28;20026;-76
2023/05/20 08:21:37;;;;;;;14.35;9.27;;;;;;;;;;4984152;28;20541;-78
2023/05/20 08:24:03;;;;;;;15.82;10.07;;;;;;;;;;4984633;28;20042;-77
2023/05/20 08:26:29;;;;;;;12.05;9.52;;;;;;;;;;4957538;28;20022;-77
2023/05/20 08:28:55;;;;;;;16.35;9.63;;;;;;;;;;4993547;28;20030;-76
2023/05/20 08:31:20;;;;;;;14.48;9.30;;;;;;;;;;4984268;28;20639;-76
2023/05/20 08:33:45;;;;;;;16.33;10.02;;;;;;;;;;4983025;28;20105;-76
2023/05/20 08:36:11;;;;;;;16.25;10.70;;;;;;;;;;4961058;28;20085;-76
2023/05/20 08:38:36;;;;;;;14.63;9.75;;;;;;;;;;4983199;28;20564;-76
2023/05/20 08:41:02;;;;;;;14.20;9.52;;;;;;;;;;4988035;28;20027;-76
2023/05/20 08:43:29;;;;;;;15.55;9.50;;;;;;;;;;4981842;28;20030;-76
2023/05/20 08:45:55;;;;;;;13.07;8.93;;;;;;;;;;4983430;28;20030;-77
2023/05/20 08:48:22;;;;;;;14.77;10.63;;;;;;;;;;4978640;28;20065;-77
2023/05/20 08:50:52;;;;;;;13.27;9.30;;;;;;;;;;4991127;28;20030;-77
2023/05/20 08:53:18;;;;;;;14.18;9.68;;;;;;;;;;4986182;28;20033;-76
2023/05/20 08:55:54;;;;;;;15.23;9.60;;;;;;;;;;4982063;28;20399;-76
2023/05/20 08:58:20;;;;;;;13.60;9.13;;;;;;;;;;4990203;28;20129;-77
2023/05/20 09:00:46;;;;;;;13.80;9.40;;;;;;;;;;4988978;28;20613;-77
2023/05/20 09:03:12;;;;;;;13.15;9.15;;;;;;;;;;4980154;28;20026;-77
2023/05/20 09:05:37;;;;;;;15.57;9.77;;;;;;;;;;4994661;28;20494;-78
2023/05/20 09:08:10;;;;;;;13.60;9.05;;;;;;;;;;4978145;28;20026;-77
2023/05/20 09:10:40;;;;;;;13.50;10.20;;;;;;;;;;4969441;28;20158;-77
2023/05/20 09:13:07;;;;;;;15.73;10.20;;;;;;;;;;4984117;28;20015;-78
2023/05/20 09:15:34;;;;;;;15.50;10.10;;;;;;;;;;4982937;28;20715;-78
2023/05/20 09:18:01;;;;;;;14.90;9.80;;;;;;;;;;4962237;28;20044;-77
2023/05/20 09:20:28;;;;;;;14.50;9.55;;;;;;;;;;4982940;28;20501;-77
2023/05/20 09:22:57;;;;;;;13.73;9.43;;;;;;;;;;4988395;28;20038;-77
2023/05/20 09:25:23;;;;;;;13.10;9.38;;;;;;;;;;4984161;28;20038;-78
2023/05/20 09:27:49;;;;;;;13.38;9.50;;;;;;;;;;4977300;28;20040;-77
2023/05/20 09:30:18;;;;;;;15.90;9.40;;;;;;;;;;4975695;28;20623;-77
2023/05/20 09:32:43;;;;;;;15.20;10.05;;;;;;;;;;4961689;28;20118;-79
2023/05/20 09:35:12;;;;;;;14.35;9.23;;;;;;;;;;4989924;28;20113;-77
2023/05/20 09:37:41;;;;;;;14.93;8.52;;;;;;;;;;4962488;28;20033;-77
2023/05/20 09:40:11;;;;;;;14.40;9.82;;;;;;;;;;4972778;28;20050;-77
2023/05/20 09:42:46;;;;;;;13.65;9.20;;;;;;;;;;4984212;28;20430;-77
2023/05/20 09:45:12;;;;;;;14.13;9.10;;;;;;;;;;4988039;28;20022;-77
2023/05/20 09:47:39;;;;;;;12.48;8.90;;;;;;;;;;4983549;28;20053;-78
2023/05/20 09:50:08;;;;;;;14.15;8.77;;;;;;;;;;4984439;28;20415;-78
2023/05/20 09:52:38;;;;;;;12.52;8.20;;;;;;;;;;4969431;28;20113;-78
2023/05/20 09:55:05;;;;;;;12.82;8.40;;;;;;;;;;4984199;28;20130;-78
2023/05/20 09:57:33;;;;;;;12.68;8.38;;;;;;;;;;4987434;28;20105;-78
2023/05/20 09:59:58;;;;;;;12.45;8.05;;;;;;;;;;4977018;28;20026;-77
2023/05/20 10:02:24;;;;;;;12.05;8.65;;;;;;;;;;4978468;28;20549;-78
2023/05/20 10:04:52;;;;;;;14.57;8.75;;;;;;;;;;4977030;28;20023;-77
2023/05/20 10:07:36;;;;;;;13.60;8.70;;;;;;;;;;4986624;28;20113;-79
2023/05/20 10:10:02;;;;;;;13.50;8.10;;;;;;;;;;4984733;28;20026;-78
2023/05/20 10:12:42;;;;;;;11.02;8.35;;;;;;;;;;4978283;28;20106;-78
2023/05/20 10:15:26;;;;;;;16.48;8.13;;;;;;;;;;4974593;28;20033;-78
2023/05/20 10:18:00;;;;;;;14.02;8.63;;;;;;;;;;4988825;28;20034;-77
2023/05/20 10:20:26;;;;;;;12.95;8.85;;;;;;;;;;4962644;28;20680;-77
2023/05/20 10:22:56;;;;;;;13.65;8.60;;;;;;;;;;4986442;28;20030;-77
2023/05/20 10:25:28;;;;;;;12.73;8.45;;;;;;;;;;4978541;28;20082;-77
2023/05/20 10:28:06;;;;;;;11.75;8.10;;;;;;;;;;4984895;28;20041;-77
2023/05/20 10:30:32;;;;;;;11.65;7.53;;;;;;;;;;4986146;28;20018;-77
2023/05/20 10:33:04;;;;;;;11.80;6.45;;;;;;;;;;4981371;28;20038;-77
2023/05/20 10:35:30;;;;;;;11.05;7.68;;;;;;;;;;4986118;28;20124;-78
2023/05/20 10:38:08;;;;;;;13.10;8.52;;;;;;;;;;4994506;28;20486;-77
2023/05/20 10:40:33;;;;;;;10.88;7.25;;;;;;;;;;4991106;28;20026;-78
2023/05/20 10:43:09;;;;;;;16.10;8.90;;;;;;;;;;4980163;28;20037;-77
2023/05/20 10:45:36;;;;;;;30.17;9.40;;;;;;;;;;4983458;28;20069;-78
2023/05/20 10:48:02;;;;;;;26.13;9.05;;;;;;;;;;4979099;28;20101;-77
2023/05/20 10:50:35;;;;;;;12.57;7.82;;;;;;;;;;4978499;28;20110;-77
2023/05/20 10:53:12;;;;;;;12.30;7.07;;;;;;;;;;4972185;28;20073;-78
2023/05/20 10:55:39;;;;;;;11.82;8.10;;;;;;;;;;4974016;28;20027;-77
2023/05/20 10:58:05;;;;;;;14.95;8.45;;;;;;;;;;4976655;28;20685;-78
2023/05/20 11:00:37;;;;;;;14.30;7.90;;;;;;;;;;4992898;28;20097;-78
2023/05/20 11:03:05;;;;;;;21.08;8.82;;;;;;;;;;4981397;28;20023;-77
2023/05/20 11:05:31;;;;;;;35.15;9.38;;;;;;;;;;4979503;28;20022;-77
2023/05/20 11:08:01;;;;;;;50.28;10.45;;;;;;;;;;4977820;28;20032;-78
2023/05/20 11:10:26;;;;;;;45.83;10.07;;;;;;;;;;4978765;28;20029;-77
2023/05/20 11:12:52;;;;;;;13.98;9.07;;;;;;;;;;4981915;28;20602;-77
2023/05/20 11:15:18;;;;;;;16.70;8.90;;;;;;;;;;4991767;28;20030;-77
2023/05/20 11:17:58;;;;;;;15.60;8.60;;;;;;;;;;4979727;28;20054;-78
2023/05/20 11:20:25;;;;;;;12.10;7.72;;;;;;;;;;4973333;28;20030;-77
2023/05/20 11:22:51;;;;;;;13.68;8.55;;;;;;;;;;4979671;28;20030;-77
2023/05/20 11:25:17;;;;;;;12.70;8.27;;;;;;;;;;4988895;28;20066;-78
2023/05/20 11:27:43;;;;;;;12.75;8.32;;;;;;;;;;4973647;28;20026;-77
2023/05/20 11:30:11;;;;;;;12.45;8.05;;;;;;;;;;4974630;28;20018;-78
2023/05/20 11:32:37;;;;;;;13.30;7.55;;;;;;;;;;4979384;28;20069;-77
2023/05/20 11:35:03;;;;;;;11.20;7.93;;;;;;;;;;4989392;28;20022;-77
2023/05/20 11:37:29;;;;;;;12.15;8.30;;;;;;;;;;4986056;28;20030;-78
2023/05/20 11:40:08;;;;;;;13.75;8.82;;;;;;;;;;4990333;28;20022;-78
2023/05/20 11:42:35;;;;;;;12.30;8.60;;;;;;;;;;4979744;28;20026;-78
2023/05/20 11:45:01;;;;;;;12.43;8.15;;;;;;;;;;4985428;28;20021;-78
2023/05/20 11:47:27;;;;;;;12.05;8.43;;;;;;;;;;4995610;28;20034;-77
2023/05/20 11:49:52;;;;;;;13.30;8.15;;;;;;;;;;4988440;28;20040;-78
2023/05/20 11:52:18;;;;;;;14.50;8.95;;;;;;;;;;4982605;28;20050;-78
2023/05/20 11:54:43;;;;;;;11.88;7.18;;;;;;;;;;4976713;28;20068;-77
2023/05/20 11:57:10;;;;;;;11.45;8.05;;;;;;;;;;4992709;28;20022;-78
2023/05/20 11:59:36;;;;;;;10.60;8.00;;;;;;;;;;4980280;28;20038;-78
2023/05/20 12:02:01;;;;;;;15.48;9.15;;;;;;;;;;4980661;28;20113;-78
2023/05/20 12:04:27;;;;;;;14.07;8.75;;;;;;;;;;4987479;28;20033;-77
2023/05/20 12:06:52;;;;;;;13.45;8.13;;;;;;;;;;4984966;28;20060;-77
2023/05/20 12:09:18;;;;;;;12.32;8.07;;;;;;;;;;4990169;28;20022;-77
2023/05/20 12:11:44;;;;;;;14.10;9.23;;;;;;;;;;4977166;28;20113;-78
2023/05/20 12:14:09;;;;;;;14.77;9.45;;;;;;;;;;4978756;28;20049;-77
2023/05/20 12:16:36;;;;;;;15.43;9.10;;;;;;;;;;4979659;28;20050;-77
2023/05/20 12:19:02;;;;;;;14.77;8.88;;;;;;;;;;4994234;28;20026;-77
2023/05/20 12:21:28;;;;;;;13.75;9.00;;;;;;;;;;4986278;28;20037;-76
2023/05/20 12:23:57;;;;;;;17.75;10.07;;;;;;;;;;4974874;28;20056;-77
2023/05/20 12:26:26;;;;;;;14.07;8.98;;;;;;;;;;4976898;28;20503;-76
2023/05/20 12:28:52;;;;;;;12.05;8.65;;;;;;;;;;4987625;28;20036;-76
2023/05/20 12:31:18;;;;;;;14.73;9.38;;;;;;;;;;4987858;28;20068;-77
2023/05/20 12:33:43;;;;;;;14.68;8.15;;;;;;;;;;4985152;28;20721;-77
2023/05/20 12:36:09;;;;;;;14.63;8.60;;;;;;;;;;4962283;28;20018;-77
2023/05/20 12:38:34;;;;;;;13.75;8.93;;;;;;;;;;4979461;28;20026;-76
2023/05/20 12:41:00;;;;;;;15.65;8.95;;;;;;;;;;4975565;28;20050;-76
2023/05/20 12:43:26;;;;;;;13.63;8.77;;;;;;;;;;4989240;28;20026;-77
2023/05/20 12:45:51;;;;;;;15.50;9.18;;;;;;;;;;4980137;28;20065;-77
2023/05/20 12:48:17;;;;;;;12.25;8.65;;;;;;;;;;4977380;28;20054;-76
2023/05/20 12:50:43;;;;;;;12.98;9.15;;;;;;;;;;4986443;28;20034;-77
2023/05/20 12:53:08;;;;;;;14.52;9.90;;;;;;;;;;4993324;28;20030;-77
2023/05/20 12:55:33;;;;;;;18.95;10.30;;;;;;;;;;4980301;28;20026;-76
2023/05/20 12:57:59;;;;;;;14.75;9.55;;;;;;;;;;4994369;28;20036;-76
2023/05/20 13:00:24;;;;;;;15.45;9.57;;;;;;;;;;4987084;28;20027;-76
2023/05/20 13:02:51;;;;;;;13.82;9.18;;;;;;;;;;4985783;28;20026;-77
2023/05/20 13:05:16;;;;;;;14.43;9.40;;;;;;;;;;4990431;28;20360;-77
2023/05/20 13:07:42;;;;;;;13.70;9.95;;;;;;;;;;4985094;28;20029;-77
2023/05/20 13:10:09;;;;;;;15.50;10.20;;;;;;;;;;4985629;28;20029;-77
2023/05/20 13:12:34;;;;;;;13.68;9.23;;;;;;;;;;4984698;28;20037;-77
2023/05/20 13:15:00;;;;;;;15.85;10.70;;;;;;;;;;4994035;28;20406;-77
2023/05/20 13:17:26;;;;;;;16.52;10.23;;;;;;;;;;4977837;28;20027;-76
2023/05/20 13:19:51;;;;;;;10.00;6.80;;;;;;;;;;4981054;28;20033;-77
2023/05/20 13:22:17;;;;;;;15.55;9.73;;;;;;;;;;4981939;28;20378;-78
2023/05/20 13:24:42;;;;;;;16.58;9.88;;;;;;;;;;4983865;28;20034;-76
2023/05/20 13:27:08;;;;;;;15.65;10.55;;;;;;;;;;4986178;28;20045;-77
2023/05/20 13:29:33;;;;;;;16.80;10.82;;;;;;;;;;4985883;28;20033;-77
2023/05/20 13:31:58;;;;;;;16.60;10.80;;;;;;;;;;4978358;28;20571;-77
2023/05/20 13:34:24;;;;;;;16.05;10.80;;;;;;;;;;4976110;28;20035;-76
2023/05/20 13:36:49;;;;;;;17.70;10.00;;;;;;;;;;4991611;28;20022;-77
2023/05/20 13:39:15;;;;;;;14.82;9.57;;;;;;;;;;4983865;28;20032;-76
2023/05/20 13:41:41;;;;;;;16.17;10.38;;;;;;;;;;4983399;28;20026;-77
2023/05/20 13:44:07;;;;;;;16.25;10.27;;;;;;;;;;4979380;28;20033;-77
2023/05/20 13:46:32;;;;;;;15.43;10.32;;;;;;;;;;4978471;28;20034;-76
2023/05/20 13:48:58;;;;;;;18.35;10.40;;;;;;;;;;4993067;28;20446;-77
2023/05/20 13:51:23;;;;;;;14.02;9.75;;;;;;;;;;4958712;28;20030;-76
2023/05/20 13:53:49;;;;;;;15.63;9.80;;;;;;;;;;4978985;28;20618;-76
2023/05/20 13:56:14;;;;;;;17.98;10.40;;;;;;;;;;4980774;28;20022;-77
2023/05/20 13:58:40;;;;;;;16.35;10.02;;;;;;;;;;4979433;28;20053;-77
2023/05/20 14:01:05;;;;;;;15.82;9.93;;;;;;;;;;4970467;28;20127;-77
2023/05/20 14:03:36;;;;;;;16.65;11.38;;;;;;;;;;4983243;28;20018;-76
2023/05/20 14:06:01;;;;;;;17.10;9.73;;;;;;;;;;4974507;28;20035;-77
2023/05/20 14:08:26;;;;;;;16.65;11.60;;;;;;;;;;4986379;28;20030;-78
2023/05/20 14:10:53;;;;;;;18.30;11.25;;;;;;;;;;4988072;28;20064;-77
2023/05/20 14:13:22;;;;;;;15.38;10.18;;;;;;;;;;4983854;28;20033;-76
2023/05/20 14:15:49;;;;;;;14.85;10.45;;;;;;;;;;4978745;28;20046;-77
2023/05/20 14:18:15;;;;;;;14.75;9.52;;;;;;;;;;4984348;28;20022;-77
2023/05/20 14:20:40;;;;;;;14.98;9.75;;;;;;;;;;4985851;28;20028;-77
2023/05/20 14:23:05;;;;;;;17.95;9.88;;;;;;;;;;4970746;28;20026;-77
2023/05/20 14:25:31;;;;;;;17.88;10.23;;;;;;;;;;4987742;28;20089;-76
2023/05/20 14:27:56;;;;;;;17.23;10.60;;;;;;;;;;4980249;28;20538;-77
2023/05/20 14:30:22;;;;;;;14.15;9.80;;;;;;;;;;4981111;28;20644;-76